createdAt,value
2022-09-27T00:04:26.779Z,8.06
2022-09-27T00:09:33.670Z,8.06
2022-09-27T00:14:40.782Z,8.08
2022-09-27T00:19:46.143Z,8.03
2022-09-27T00:24:53.643Z,7.95
2022-09-27T00:30:00.551Z,7.84
2022-09-27T00:35:09.146Z,7.76
2022-09-27T00:40:19.793Z,7.70
2022-09-27T00:45:27.682Z,7.68
2022-09-27T00:50:35.767Z,7.66
2022-09-27T00:55:46.350Z,7.66
2022-09-27T01:00:57.348Z,7.69
2022-09-27T01:06:07.963Z,7.70
2022-09-27T01:11:27.091Z,7.72
2022-09-27T01:16:44.755Z,7.73
2022-09-27T01:22:04.171Z,7.72
2022-09-27T01:27:37.882Z,7.68
2022-09-27T01:32:55.188Z,7.61
2022-09-27T01:38:11.000Z,7.59
2022-09-27T01:43:24.061Z,7.58
2022-09-27T01:48:36.625Z,7.51
2022-09-27T01:53:47.468Z,7.45
2022-09-27T01:58:59.411Z,7.45
2022-09-27T02:04:10.878Z,7.46
2022-09-27T02:09:22.912Z,7.47
2022-09-27T02:14:35.830Z,7.55
2022-09-27T02:19:51.225Z,7.66
2022-09-27T02:25:04.999Z,7.77
2022-09-27T02:30:14.868Z,7.88
2022-09-27T02:35:28.096Z,7.95
2022-09-27T02:40:37.675Z,8.01
2022-09-27T02:45:59.264Z,8.07
2022-09-27T02:51:22.689Z,8.09
2022-09-27T02:56:37.247Z,8.03
2022-09-27T03:01:53.599Z,8.01
2022-09-27T03:07:01.718Z,8.03
2022-09-27T03:12:08.922Z,8.07
2022-09-27T03:17:15.906Z,8.08
2022-09-27T03:22:21.370Z,8.07
2022-09-27T03:27:30.803Z,8.02
2022-09-27T03:32:43.312Z,7.82
2022-09-27T03:37:51.277Z,7.59
2022-09-27T03:42:59.011Z,7.43
2022-09-27T03:48:06.502Z,7.33
2022-09-27T03:53:13.390Z,7.37
2022-09-27T03:58:20.188Z,7.47
2022-09-27T04:03:27.216Z,7.47
2022-09-27T04:08:32.547Z,7.33
2022-09-27T04:13:39.553Z,7.25
2022-09-27T04:18:47.064Z,7.25
2022-09-27T04:23:53.956Z,7.35
2022-09-27T04:29:01.176Z,7.43
2022-09-27T04:34:08.479Z,7.48
2022-09-27T04:39:15.747Z,7.41
2022-09-27T04:44:22.905Z,7.33
2022-09-27T04:49:29.986Z,7.30
2022-09-27T04:54:35.345Z,7.31
2022-09-27T04:59:42.915Z,7.39
2022-09-27T05:04:49.862Z,7.39
2022-09-27T05:09:57.431Z,7.41
2022-09-27T05:15:06.020Z,7.33
2022-09-27T05:20:14.341Z,7.18
2022-09-27T05:25:21.750Z,7.02
2022-09-27T05:30:32.560Z,7.01
2022-09-27T05:35:45.526Z,7.01
2022-09-27T05:40:53.979Z,6.89
2022-09-27T05:46:01.736Z,6.78
2022-09-27T05:51:09.229Z,6.66
2022-09-27T05:56:17.541Z,6.60
2022-09-27T06:01:27.969Z,6.64
2022-09-27T06:06:37.649Z,6.67
2022-09-27T06:11:45.605Z,6.73
2022-09-27T06:16:55.309Z,6.90
2022-09-27T06:22:05.114Z,7.13
2022-09-27T06:27:11.956Z,7.31
2022-09-27T06:32:18.790Z,7.40
2022-09-27T06:37:29.232Z,7.37
2022-09-27T06:42:37.046Z,7.38
2022-09-27T06:47:44.451Z,7.52
2022-09-27T06:52:53.799Z,7.67
2022-09-27T06:58:19.644Z,7.74
2022-09-27T07:03:35.499Z,7.76
2022-09-27T07:08:43.728Z,7.88
2022-09-27T07:13:48.925Z,8.05
2022-09-27T07:18:56.109Z,8.19
2022-09-27T07:24:04.291Z,8.31
2022-09-27T07:29:13.882Z,8.48
2022-09-27T07:34:23.096Z,8.69
2022-09-27T07:39:30.111Z,8.89
2022-09-27T07:44:38.045Z,9.07
2022-09-27T07:49:47.543Z,9.28
2022-09-27T07:54:54.575Z,9.54
2022-09-27T08:00:03.021Z,9.80
2022-09-27T08:05:11.371Z,10.09
2022-09-27T08:10:18.941Z,10.37
2022-09-27T08:15:28.830Z,10.60
2022-09-27T08:20:34.548Z,10.78
2022-09-27T08:25:42.821Z,10.96
2022-09-27T08:30:52.058Z,11.15
2022-09-27T08:35:59.994Z,11.33
2022-09-27T08:41:15.502Z,11.47
2022-09-27T08:46:36.212Z,11.62
2022-09-27T08:51:46.658Z,11.76
2022-09-27T08:57:00.165Z,11.91
2022-09-27T09:02:14.058Z,12.06
2022-09-27T09:07:40.004Z,12.17
2022-09-27T09:12:58.890Z,12.27
2022-09-27T09:18:23.759Z,12.39
2022-09-27T09:23:59.132Z,12.53
2022-09-27T09:29:21.190Z,12.67
2022-09-27T09:34:35.780Z,12.82
2022-09-27T09:39:49.380Z,12.97
2022-09-27T09:45:01.463Z,13.12
2022-09-27T09:50:21.624Z,13.25
2022-09-27T09:55:36.908Z,13.39
2022-09-27T10:00:47.886Z,13.54
2022-09-27T10:05:55.856Z,13.64
2022-09-27T10:11:04.131Z,13.81
2022-09-27T10:16:15.469Z,13.96
2022-09-27T10:21:27.397Z,14.08
2022-09-27T10:26:37.003Z,14.18
2022-09-27T10:31:48.060Z,14.27
2022-09-27T10:37:06.945Z,14.37
2022-09-27T10:42:34.154Z,14.51
2022-09-27T10:47:42.486Z,14.66
2022-09-27T10:52:50.505Z,14.75
2022-09-27T10:57:58.396Z,14.79
2022-09-27T11:03:14.310Z,14.82
2022-09-27T11:08:30.680Z,14.92
2022-09-27T11:13:38.724Z,15.07
2022-09-27T11:18:58.980Z,15.16
2022-09-27T11:24:25.024Z,15.25
2022-09-27T11:29:41.292Z,15.31
2022-09-27T11:35:07.045Z,15.42
2022-09-27T11:40:27.648Z,15.56
2022-09-27T11:46:14.248Z,15.70
2022-09-27T11:51:27.197Z,15.82
2022-09-27T11:56:49.676Z,15.86
2022-09-27T12:02:08.226Z,15.93
2022-09-27T12:07:23.374Z,15.98
2022-09-27T12:12:34.054Z,16.06
2022-09-27T12:17:44.105Z,16.10
2022-09-27T12:23:00.414Z,16.18
2022-09-27T12:28:15.593Z,16.25
2022-09-27T12:33:30.404Z,16.33
2022-09-27T12:38:45.257Z,16.43
2022-09-27T12:43:54.179Z,16.50
2022-09-27T12:49:09.443Z,16.54
2022-09-27T12:54:53.193Z,16.62
2022-09-27T13:00:10.469Z,16.68
2022-09-27T13:05:58.952Z,16.72
2022-09-27T13:11:18.010Z,16.73
2022-09-27T13:16:26.932Z,16.69
2022-09-27T13:22:00.854Z,16.70
2022-09-27T13:27:40.722Z,16.70
2022-09-27T13:33:33.263Z,16.69
2022-09-27T13:38:40.632Z,16.68
2022-09-27T13:44:05.258Z,16.69
2022-09-27T13:49:20.360Z,16.67
2022-09-27T13:54:51.064Z,16.62
2022-09-27T14:00:04.807Z,16.55
2022-09-27T14:05:19.582Z,16.47
2022-09-27T14:10:28.824Z,16.41
2022-09-27T14:15:37.058Z,16.35
2022-09-27T14:20:47.655Z,16.29
2022-09-27T14:25:58.915Z,16.25
2022-09-27T14:31:16.367Z,16.21
2022-09-27T14:36:48.968Z,16.14
2022-09-27T14:41:55.832Z,16.06
2022-09-27T14:47:21.640Z,15.98
2022-09-27T14:52:33.447Z,15.90
2022-09-27T14:57:52.459Z,15.86
2022-09-27T15:03:03.417Z,15.83
2022-09-27T15:08:15.624Z,15.77
2022-09-27T15:13:23.348Z,15.69
2022-09-27T15:18:42.187Z,15.65
2022-09-27T15:23:50.215Z,15.58
2022-09-27T15:28:57.224Z,15.46
2022-09-27T15:34:06.848Z,15.07
2022-09-27T15:39:20.582Z,14.31
2022-09-27T15:44:54.130Z,13.70
2022-09-27T15:50:23.058Z,13.16
2022-09-27T15:55:34.260Z,12.72
2022-09-27T16:00:53.986Z,12.42
2022-09-27T16:06:02.311Z,12.19
2022-09-27T16:11:11.535Z,12.02
2022-09-27T16:16:23.571Z,11.92
2022-09-27T16:21:32.204Z,11.88
2022-09-27T16:26:39.307Z,11.81
2022-09-27T16:31:46.727Z,11.68
2022-09-27T16:36:53.705Z,11.56
2022-09-27T16:42:05.105Z,11.47
2022-09-27T16:47:12.492Z,11.36
2022-09-27T16:52:19.609Z,11.25
2022-09-27T16:57:28.656Z,11.15
2022-09-27T17:02:36.578Z,11.07
2022-09-27T17:07:43.992Z,10.97
2022-09-27T17:12:51.373Z,10.93
2022-09-27T17:17:59.220Z,10.94
2022-09-27T17:23:07.131Z,10.99
2022-09-27T17:28:14.354Z,10.95
2022-09-27T17:33:22.982Z,10.90
2022-09-27T17:38:30.084Z,10.83
2022-09-27T17:43:38.009Z,10.75
2022-09-27T17:49:03.221Z,10.72
2022-09-27T17:54:12.157Z,10.71
2022-09-27T17:59:20.093Z,10.72
2022-09-27T18:04:27.098Z,10.71
2022-09-27T18:09:35.631Z,10.72
2022-09-27T18:14:43.297Z,10.73
2022-09-27T18:19:52.046Z,10.76
2022-09-27T18:25:01.334Z,10.77
2022-09-27T18:30:12.514Z,10.74
2022-09-27T18:35:20.968Z,10.71
2022-09-27T18:40:54.444Z,10.68
2022-09-27T18:45:57.426Z,10.62
2022-09-27T18:51:13.885Z,10.56
2022-09-27T18:56:20.984Z,10.51
2022-09-27T19:01:28.788Z,10.49
2022-09-27T19:06:37.366Z,10.45
2022-09-27T19:11:46.920Z,10.44
2022-09-27T19:16:54.698Z,10.43
2022-09-27T19:22:01.759Z,10.41
2022-09-27T19:27:09.448Z,10.42
2022-09-27T19:32:16.967Z,10.44
2022-09-27T19:37:24.063Z,10.48
2022-09-27T19:42:31.593Z,10.52
2022-09-27T19:47:39.251Z,10.54
2022-09-27T19:52:47.650Z,10.58
2022-09-27T19:57:56.570Z,10.57
2022-09-27T20:03:03.617Z,10.54
2022-09-27T20:08:10.812Z,10.54
2022-09-27T20:13:18.278Z,10.56
2022-09-27T20:18:25.889Z,10.60
2022-09-27T20:23:34.790Z,10.62
2022-09-27T20:28:45.874Z,10.63
2022-09-27T20:33:55.140Z,10.61
2022-09-27T20:39:05.467Z,10.59
2022-09-27T20:44:15.752Z,10.55
2022-09-27T20:49:25.572Z,10.50
2022-09-27T20:54:33.724Z,10.46
2022-09-27T20:59:42.979Z,10.42
2022-09-27T21:04:49.880Z,10.37
2022-09-27T21:09:57.439Z,10.35
2022-09-27T21:15:05.414Z,10.33
2022-09-27T21:20:15.023Z,10.31
2022-09-27T21:25:22.095Z,10.30
2022-09-27T21:30:30.578Z,10.32
2022-09-27T21:35:37.655Z,10.34
2022-09-27T21:40:54.512Z,10.33
2022-09-27T21:46:09.928Z,10.30
2022-09-27T21:51:19.170Z,10.33
2022-09-27T21:56:29.258Z,10.35
2022-09-27T22:01:36.915Z,10.33
2022-09-27T22:06:45.294Z,10.30
2022-09-27T22:11:52.080Z,10.28
2022-09-27T22:16:57.500Z,10.27
2022-09-27T22:22:04.666Z,10.30
2022-09-27T22:27:11.758Z,10.29
2022-09-27T22:32:18.758Z,10.26
2022-09-27T22:37:25.578Z,10.25
2022-09-27T22:42:32.464Z,10.22
2022-09-27T22:47:37.850Z,10.18
2022-09-27T22:52:44.791Z,10.15
2022-09-27T22:57:54.252Z,10.18
2022-09-27T23:03:01.879Z,10.20
2022-09-27T23:08:09.146Z,10.21
2022-09-27T23:13:15.978Z,10.22
2022-09-27T23:18:21.390Z,10.22
2022-09-27T23:23:28.960Z,10.19
2022-09-27T23:28:36.597Z,10.14
2022-09-27T23:33:46.652Z,10.10
2022-09-27T23:38:54.164Z,10.06
2022-09-27T23:44:02.054Z,10.06
2022-09-27T23:49:13.091Z,10.03
2022-09-27T23:54:20.198Z,9.99
2022-09-27T23:59:27.580Z,9.96
